createdAt,value
2023-03-30T00:00:52.719Z,7.27
2023-03-30T00:03:22.989Z,12.03
2023-03-30T00:05:51.754Z,6.53
2023-03-30T00:08:19.562Z,11.77
2023-03-30T00:10:47.855Z,8.50
2023-03-30T00:13:15.284Z,8.13
2023-03-30T00:15:42.453Z,9.23
2023-03-30T00:18:09.777Z,9.20
2023-03-30T00:20:37.769Z,8.60
2023-03-30T00:23:05.192Z,12.67
2023-03-30T00:25:32.331Z,8.87
2023-03-30T00:27:59.474Z,11.27
2023-03-30T00:30:26.612Z,17.03
2023-03-30T00:32:54.021Z,14.40
2023-03-30T00:35:21.299Z,14.93
2023-03-30T00:37:49.794Z,15.97
2023-03-30T00:40:21.032Z,13.13
2023-03-30T00:42:48.578Z,12.33
2023-03-30T00:45:17.907Z,8.83
2023-03-30T00:48:11.849Z,12.17
2023-03-30T00:50:38.998Z,10.53
2023-03-30T00:53:09.967Z,9.13
2023-03-30T00:55:38.126Z,11.47
2023-03-30T00:58:06.640Z,8.90
2023-03-30T01:00:34.468Z,9.97
2023-03-30T01:03:04.052Z,9.43
2023-03-30T01:05:31.541Z,12.57
2023-03-30T01:07:59.136Z,10.73
2023-03-30T01:10:26.516Z,11.00
2023-03-30T01:12:53.959Z,9.50
2023-03-30T01:15:21.410Z,10.27
2023-03-30T01:18:08.838Z,12.67
2023-03-30T01:20:54.950Z,14.07
2023-03-30T01:23:27.503Z,12.83
2023-03-30T01:25:56.422Z,13.40
2023-03-30T01:28:30.973Z,10.87
2023-03-30T01:31:04.393Z,12.77
2023-03-30T01:33:37.827Z,12.60
2023-03-30T01:36:05.069Z,12.23
2023-03-30T01:38:41.235Z,12.87
2023-03-30T01:41:22.453Z,9.77
2023-03-30T01:44:02.759Z,10.77
2023-03-30T01:46:40.321Z,18.93
2023-03-30T01:49:07.489Z,10.53
2023-03-30T01:51:39.667Z,15.90
2023-03-30T01:54:19.856Z,16.07
2023-03-30T01:57:10.685Z,9.60
2023-03-30T01:59:41.910Z,11.47
2023-03-30T02:02:10.940Z,12.20
2023-03-30T02:04:39.837Z,11.20
2023-03-30T02:07:09.356Z,9.97
2023-03-30T02:09:38.047Z,14.10
2023-03-30T02:12:05.976Z,17.83
2023-03-30T02:14:34.378Z,11.70
2023-03-30T02:17:06.605Z,17.10
2023-03-30T02:19:33.974Z,11.13
2023-03-30T02:22:01.628Z,15.93
2023-03-30T02:24:30.575Z,13.80
2023-03-30T02:26:59.712Z,12.53
2023-03-30T02:29:27.143Z,17.90
2023-03-30T02:31:56.653Z,12.77
2023-03-30T02:34:36.907Z,15.27
2023-03-30T02:37:24.196Z,13.17
2023-03-30T02:39:51.265Z,16.57
2023-03-30T02:42:24.120Z,17.30
2023-03-30T02:44:57.045Z,12.40
2023-03-30T02:47:32.291Z,13.70
2023-03-30T02:50:28.992Z,9.83
2023-03-30T02:52:57.737Z,16.60
2023-03-30T02:55:24.976Z,12.23
2023-03-30T02:57:58.213Z,13.10
2023-03-30T03:00:36.539Z,12.63
2023-03-30T03:03:08.557Z,13.17
2023-03-30T03:05:35.818Z,21.80
2023-03-30T03:08:02.937Z,17.07
2023-03-30T03:10:30.059Z,12.37
2023-03-30T03:12:57.352Z,19.47
2023-03-30T03:15:25.203Z,12.50
2023-03-30T03:17:52.355Z,12.07
2023-03-30T03:20:19.984Z,19.00
2023-03-30T03:22:47.158Z,12.50
2023-03-30T03:25:15.448Z,14.50
2023-03-30T03:27:42.580Z,15.67
2023-03-30T03:30:09.978Z,14.27
2023-03-30T03:32:37.185Z,13.83
2023-03-30T03:35:04.513Z,21.30
2023-03-30T03:37:31.987Z,15.93
2023-03-30T03:39:59.120Z,14.93
2023-03-30T03:42:26.250Z,15.27
2023-03-30T03:44:53.375Z,17.50
2023-03-30T03:47:23.025Z,15.73
2023-03-30T03:49:50.194Z,16.87
2023-03-30T03:52:17.296Z,12.00
2023-03-30T03:54:44.418Z,16.50
2023-03-30T03:57:11.631Z,15.57
2023-03-30T03:59:38.852Z,14.33
2023-03-30T04:02:06.016Z,14.53
2023-03-30T04:04:33.176Z,22.23
2023-03-30T04:07:01.209Z,17.37
2023-03-30T04:09:28.318Z,13.60
2023-03-30T04:11:55.464Z,15.70
2023-03-30T04:14:22.585Z,20.77
2023-03-30T04:16:51.315Z,15.60
2023-03-30T04:19:18.861Z,15.73
2023-03-30T04:21:47.164Z,15.90
2023-03-30T04:24:14.642Z,20.27
2023-03-30T04:26:45.607Z,17.33
2023-03-30T04:29:12.802Z,21.10
2023-03-30T04:31:42.190Z,14.17
2023-03-30T04:34:09.471Z,13.67
2023-03-30T04:36:37.870Z,22.70
2023-03-30T04:39:07.999Z,13.97
2023-03-30T04:41:36.078Z,22.30
2023-03-30T04:44:04.886Z,16.93
2023-03-30T04:46:32.326Z,16.50
2023-03-30T04:48:59.660Z,15.73
2023-03-30T04:51:26.827Z,16.87
2023-03-30T04:53:54.118Z,14.10
2023-03-30T04:56:21.904Z,17.93
2023-03-30T04:58:49.040Z,20.30
2023-03-30T05:01:16.214Z,17.67
2023-03-30T05:03:43.467Z,14.63
2023-03-30T05:06:11.409Z,16.43
2023-03-30T05:08:41.227Z,19.37
2023-03-30T05:11:09.011Z,16.60
2023-03-30T05:13:36.152Z,22.60
2023-03-30T05:16:03.251Z,18.67
2023-03-30T05:18:30.534Z,17.50
2023-03-30T05:20:58.734Z,18.63
2023-03-30T05:23:26.655Z,21.77
2023-03-30T05:25:55.442Z,18.67
2023-03-30T05:28:23.052Z,21.33
2023-03-30T05:30:56.780Z,17.90
2023-03-30T05:33:24.287Z,19.43
2023-03-30T05:35:51.939Z,22.07
2023-03-30T05:38:19.326Z,25.13
2023-03-30T05:40:46.488Z,22.83
2023-03-30T05:43:13.717Z,21.20
2023-03-30T05:45:44.185Z,20.97
2023-03-30T05:48:11.801Z,31.73
2023-03-30T05:50:39.097Z,20.17
2023-03-30T05:53:06.271Z,18.13
2023-03-30T05:55:33.405Z,23.03
2023-03-30T05:58:00.632Z,20.67
2023-03-30T06:00:29.104Z,17.30
2023-03-30T06:02:56.364Z,25.33
2023-03-30T06:05:24.408Z,17.90
2023-03-30T06:07:51.616Z,20.70
2023-03-30T06:10:18.766Z,18.77
2023-03-30T06:12:45.948Z,21.63
2023-03-30T06:15:13.095Z,22.63
2023-03-30T06:17:40.296Z,23.23
2023-03-30T06:20:09.372Z,26.33
2023-03-30T06:22:36.556Z,21.10
2023-03-30T06:25:03.971Z,20.70
2023-03-30T06:27:32.992Z,20.83
2023-03-30T06:30:00.198Z,17.23
2023-03-30T06:32:27.422Z,20.23
2023-03-30T06:34:54.574Z,21.73
2023-03-30T06:37:21.831Z,19.13
2023-03-30T06:39:49.012Z,24.73
2023-03-30T06:42:16.317Z,16.40
2023-03-30T06:44:43.465Z,16.07
2023-03-30T06:47:10.599Z,18.10
2023-03-30T06:49:37.773Z,22.27
2023-03-30T06:52:06.798Z,20.20
2023-03-30T06:54:35.546Z,21.67
2023-03-30T06:57:02.823Z,23.77
2023-03-30T06:59:31.450Z,16.63
2023-03-30T07:02:00.769Z,24.43
2023-03-30T07:04:27.916Z,24.00
2023-03-30T07:06:57.869Z,34.20
2023-03-30T07:09:25.692Z,27.07
2023-03-30T07:11:55.061Z,22.97
2023-03-30T07:14:23.357Z,23.70
2023-03-30T07:16:51.212Z,23.33
2023-03-30T07:19:18.637Z,26.60
2023-03-30T07:21:45.894Z,23.57
2023-03-30T07:24:13.214Z,26.13
2023-03-30T07:26:40.439Z,21.60
2023-03-30T07:29:08.082Z,21.73
2023-03-30T07:31:35.659Z,24.27
2023-03-30T07:34:04.300Z,24.30
2023-03-30T07:36:31.477Z,23.00
2023-03-30T07:38:59.168Z,21.97
2023-03-30T07:41:26.328Z,26.90
2023-03-30T07:43:53.422Z,29.73
2023-03-30T07:46:20.699Z,25.23
2023-03-30T07:48:47.851Z,23.10
2023-03-30T07:51:15.030Z,29.77
2023-03-30T07:53:42.279Z,20.40
2023-03-30T07:56:09.529Z,20.00
2023-03-30T07:58:37.017Z,16.57
2023-03-30T08:01:05.024Z,17.87
2023-03-30T08:03:33.105Z,23.70
2023-03-30T08:06:05.490Z,24.93
2023-03-30T08:08:38.797Z,20.17
2023-03-30T08:11:06.900Z,21.13
2023-03-30T08:13:34.070Z,18.77
2023-03-30T08:16:01.282Z,17.07
2023-03-30T08:18:29.212Z,19.53
2023-03-30T08:20:56.682Z,21.77
2023-03-30T08:23:24.096Z,20.57
2023-03-30T08:25:52.943Z,18.57
2023-03-30T08:28:21.462Z,18.20
2023-03-30T08:30:49.020Z,18.30
2023-03-30T08:33:17.306Z,17.10
2023-03-30T08:35:45.513Z,19.53
2023-03-30T08:38:17.241Z,23.23
2023-03-30T08:40:45.666Z,23.30
2023-03-30T08:43:31.010Z,22.60
2023-03-30T08:46:00.198Z,17.47
2023-03-30T08:48:28.662Z,18.73
2023-03-30T08:50:58.739Z,20.40
2023-03-30T08:53:26.461Z,20.13
2023-03-30T08:55:57.748Z,16.87
2023-03-30T08:58:48.336Z,15.83
2023-03-30T09:01:15.512Z,14.53
2023-03-30T09:03:59.177Z,17.70
2023-03-30T09:06:42.768Z,15.33
2023-03-30T09:09:13.409Z,18.70
2023-03-30T09:11:40.927Z,15.90
2023-03-30T09:14:13.285Z,18.20
2023-03-30T09:16:50.123Z,17.07
2023-03-30T09:19:26.709Z,16.83
2023-03-30T09:21:55.413Z,13.93
2023-03-30T09:24:26.346Z,15.73
2023-03-30T09:27:02.287Z,12.53
2023-03-30T09:29:32.862Z,12.43
2023-03-30T09:32:06.630Z,13.50
2023-03-30T09:34:46.213Z,16.07
2023-03-30T09:37:18.546Z,13.33
2023-03-30T09:39:46.512Z,13.73
2023-03-30T09:42:34.115Z,15.17
2023-03-30T09:45:16.815Z,12.13
2023-03-30T09:47:44.029Z,13.43
2023-03-30T09:50:13.845Z,14.23
2023-03-30T09:52:41.708Z,11.40
2023-03-30T09:55:18.190Z,11.73
2023-03-30T09:57:45.481Z,13.13
2023-03-30T10:00:27.930Z,16.27
2023-03-30T10:02:57.371Z,11.03
2023-03-30T10:05:24.757Z,15.97
2023-03-30T10:08:05.850Z,14.70
2023-03-30T10:10:37.469Z,13.87
2023-03-30T10:13:04.676Z,12.43
2023-03-30T10:15:32.356Z,14.10
2023-03-30T10:18:08.841Z,11.17
2023-03-30T10:20:36.718Z,13.57
2023-03-30T10:23:08.933Z,13.87
2023-03-30T10:25:36.042Z,17.17
2023-03-30T10:28:06.140Z,12.97
2023-03-30T10:30:34.701Z,12.00
2023-03-30T10:33:03.164Z,12.10
2023-03-30T10:35:35.586Z,14.37
2023-03-30T10:38:03.250Z,10.80
2023-03-30T10:40:37.998Z,13.73
2023-03-30T10:43:06.865Z,11.80
2023-03-30T10:45:48.446Z,14.87
2023-03-30T10:48:18.822Z,14.13
2023-03-30T10:51:09.237Z,13.50
2023-03-30T10:53:58.556Z,10.47
2023-03-30T10:56:31.276Z,11.77
2023-03-30T10:58:58.482Z,12.10
2023-03-30T11:01:44.141Z,11.53
2023-03-30T11:04:23.085Z,11.32
2023-03-30T11:06:53.184Z,11.05
2023-03-30T11:09:23.160Z,11.43
2023-03-30T11:11:52.418Z,11.50
2023-03-30T11:14:22.083Z,9.30
2023-03-30T11:16:57.321Z,10.52
2023-03-30T11:19:35.620Z,10.82
2023-03-30T11:22:11.353Z,10.07
2023-03-30T11:24:41.522Z,9.73
2023-03-30T11:27:17.106Z,9.40
2023-03-30T11:29:44.192Z,12.93
2023-03-30T11:32:11.331Z,11.55
2023-03-30T11:34:38.464Z,8.77
2023-03-30T11:37:21.122Z,9.95
2023-03-30T11:39:56.429Z,9.70
2023-03-30T11:42:25.415Z,8.75
2023-03-30T11:44:52.607Z,11.18
2023-03-30T11:47:31.749Z,7.97
2023-03-30T11:50:05.045Z,9.35
2023-03-30T11:52:38.111Z,9.50
2023-03-30T11:55:12.445Z,7.40
2023-03-30T11:57:52.656Z,9.00
2023-03-30T12:00:26.011Z,10.00
2023-03-30T12:02:56.513Z,10.73
2023-03-30T12:05:32.584Z,12.13
2023-03-30T12:08:08.761Z,10.25
2023-03-30T12:10:40.249Z,10.27
2023-03-30T12:13:11.916Z,10.15
2023-03-30T12:15:52.076Z,8.52
2023-03-30T12:18:24.970Z,9.80
2023-03-30T12:21:06.716Z,10.25
2023-03-30T12:23:49.839Z,8.02
2023-03-30T12:26:19.866Z,11.73
2023-03-30T12:29:15.197Z,11.48
2023-03-30T12:31:50.038Z,10.35
2023-03-30T12:34:17.258Z,9.07
2023-03-30T12:36:49.217Z,11.18
2023-03-30T12:39:31.301Z,8.60
2023-03-30T12:42:05.519Z,8.82
2023-03-30T12:44:51.541Z,9.75
2023-03-30T12:47:18.630Z,10.93
2023-03-30T12:49:48.864Z,8.13
2023-03-30T12:52:19.253Z,8.18
2023-03-30T12:54:49.108Z,7.38
2023-03-30T12:57:35.164Z,9.30
2023-03-30T13:00:21.956Z,6.07
2023-03-30T13:02:55.602Z,10.60
2023-03-30T13:05:27.633Z,10.88
2023-03-30T13:07:55.964Z,10.25
2023-03-30T13:10:32.174Z,7.22
2023-03-30T13:13:00.169Z,8.05
2023-03-30T13:15:30.343Z,10.63
2023-03-30T13:18:05.520Z,7.30
2023-03-30T13:20:34.615Z,11.40
2023-03-30T13:23:10.769Z,7.60
2023-03-30T13:25:38.827Z,7.93
2023-03-30T13:28:24.830Z,13.88
2023-03-30T13:30:53.143Z,12.43
2023-03-30T13:33:21.198Z,7.75
2023-03-30T13:36:07.072Z,5.95
2023-03-30T13:38:37.707Z,8.55
2023-03-30T13:41:07.909Z,6.53
2023-03-30T13:43:43.417Z,8.17
2023-03-30T13:46:17.724Z,5.50
2023-03-30T13:48:45.290Z,6.40
2023-03-30T13:51:15.398Z,7.30
2023-03-30T13:53:46.178Z,5.22
2023-03-30T13:56:14.372Z,4.72
2023-03-30T13:58:43.495Z,7.15
2023-03-30T14:01:12.529Z,4.05
2023-03-30T14:03:41.722Z,5.47
2023-03-30T14:06:16.045Z,5.40
2023-03-30T14:08:45.104Z,6.28
2023-03-30T14:11:15.562Z,4.30
2023-03-30T14:13:43.582Z,4.95
2023-03-30T14:16:12.352Z,4.75
2023-03-30T14:18:39.559Z,5.00
2023-03-30T14:21:10.765Z,3.85
2023-03-30T14:23:37.888Z,4.68
2023-03-30T14:26:07.613Z,7.35
2023-03-30T14:28:36.114Z,7.85
2023-03-30T14:31:04.908Z,4.28
2023-03-30T14:33:33.042Z,7.35
2023-03-30T14:36:01.486Z,7.03
2023-03-30T14:38:39.889Z,5.97
2023-03-30T14:41:08.913Z,7.63
2023-03-30T14:43:39.396Z,6.00
2023-03-30T14:46:08.546Z,5.28
2023-03-30T14:48:37.536Z,7.60
2023-03-30T14:51:09.541Z,3.65
2023-03-30T14:53:36.846Z,8.57
2023-03-30T14:56:04.632Z,6.97
2023-03-30T14:58:32.711Z,6.32
2023-03-30T15:01:01.107Z,6.13
2023-03-30T15:03:33.809Z,4.30
2023-03-30T15:06:02.365Z,4.20
2023-03-30T15:08:32.529Z,4.97
2023-03-30T15:11:04.388Z,6.63
2023-03-30T15:13:31.600Z,4.38
2023-03-30T15:16:00.089Z,6.60
2023-03-30T15:18:28.203Z,9.02
2023-03-30T15:20:56.385Z,8.60
2023-03-30T15:23:24.647Z,6.90
2023-03-30T15:25:52.567Z,11.52
2023-03-30T15:28:20.532Z,7.15
2023-03-30T15:30:50.262Z,7.07
2023-03-30T15:33:31.719Z,5.20
2023-03-30T15:36:04.217Z,8.80
2023-03-30T15:38:34.084Z,6.53
2023-03-30T15:41:02.346Z,8.47
2023-03-30T15:43:33.397Z,11.13
2023-03-30T15:46:00.961Z,10.53
2023-03-30T15:48:35.412Z,5.63
2023-03-30T15:51:06.077Z,7.93
2023-03-30T15:53:36.217Z,15.03
2023-03-30T15:56:03.872Z,9.33
2023-03-30T15:58:31.058Z,8.03
2023-03-30T16:00:58.335Z,19.83
2023-03-30T16:03:33.402Z,12.03
2023-03-30T16:06:00.717Z,8.27
2023-03-30T16:08:28.771Z,8.20
2023-03-30T16:10:55.919Z,14.20
2023-03-30T16:13:23.492Z,9.57
2023-03-30T16:15:50.764Z,13.07
2023-03-30T16:18:17.983Z,9.53
2023-03-30T16:20:45.330Z,9.90
2023-03-30T16:23:12.604Z,9.17
2023-03-30T16:28:15.052Z,9.90
2023-03-30T16:30:42.764Z,7.83
2023-03-30T16:33:10.033Z,10.33
2023-03-30T16:35:37.544Z,10.47
2023-03-30T16:38:04.887Z,11.73
2023-03-30T16:40:34.150Z,8.37
2023-03-30T16:43:01.410Z,9.77
2023-03-30T16:45:29.021Z,10.53
2023-03-30T16:47:56.439Z,11.20
2023-03-30T16:50:25.516Z,13.93
2023-03-30T16:52:52.633Z,7.73
2023-03-30T16:55:19.794Z,9.33
2023-03-30T16:57:46.994Z,14.87
2023-03-30T17:00:15.326Z,12.37
2023-03-30T17:02:42.528Z,11.17
2023-03-30T17:05:09.948Z,14.50
2023-03-30T17:07:37.229Z,11.73
2023-03-30T17:10:15.519Z,13.27
2023-03-30T17:12:42.682Z,11.87
2023-03-30T17:15:10.425Z,11.80
2023-03-30T17:17:37.792Z,14.47
2023-03-30T17:20:14.637Z,10.47
2023-03-30T17:22:41.752Z,14.40
2023-03-30T17:25:09.278Z,14.93
2023-03-30T17:27:37.980Z,11.63
2023-03-30T17:30:06.020Z,13.90
2023-03-30T17:32:33.148Z,13.70
2023-03-30T17:35:00.378Z,12.40
2023-03-30T17:37:27.490Z,10.00
2023-03-30T17:39:54.586Z,13.83
2023-03-30T17:42:21.726Z,11.77
2023-03-30T17:44:48.849Z,11.10
2023-03-30T17:47:16.000Z,14.43
2023-03-30T17:49:43.124Z,12.97
2023-03-30T17:52:10.563Z,13.03
2023-03-30T17:54:38.194Z,11.07
2023-03-30T17:57:05.603Z,12.90
2023-03-30T17:59:32.825Z,8.00
2023-03-30T18:02:00.027Z,11.17
2023-03-30T18:04:27.750Z,13.50
2023-03-30T18:06:54.894Z,12.43
2023-03-30T18:09:22.018Z,15.70
2023-03-30T18:11:49.180Z,13.37
2023-03-30T18:14:16.881Z,10.27
2023-03-30T18:16:44.258Z,13.27
2023-03-30T18:19:11.849Z,10.53
2023-03-30T18:21:39.035Z,12.67
2023-03-30T18:24:06.336Z,14.77
2023-03-30T18:26:34.032Z,16.20
2023-03-30T18:29:01.232Z,14.80
2023-03-30T18:31:28.373Z,11.90
2023-03-30T18:33:55.496Z,13.17
2023-03-30T18:36:22.907Z,13.50
2023-03-30T18:38:50.342Z,13.60
2023-03-30T18:41:17.487Z,14.97
2023-03-30T18:43:44.590Z,12.93
2023-03-30T18:46:13.326Z,16.17
2023-03-30T18:48:40.559Z,10.40
2023-03-30T18:51:07.697Z,12.77
2023-03-30T18:53:36.703Z,13.50
2023-03-30T18:56:04.479Z,13.97
2023-03-30T18:58:41.584Z,12.87
2023-03-30T19:01:08.873Z,9.87
2023-03-30T19:03:36.008Z,11.57
2023-03-30T19:06:03.467Z,13.23
2023-03-30T19:08:30.869Z,15.77
2023-03-30T19:10:58.326Z,14.03
2023-03-30T19:13:26.214Z,11.67
2023-03-30T19:15:53.387Z,12.17
2023-03-30T19:18:20.949Z,10.70
2023-03-30T19:20:49.933Z,11.93
2023-03-30T19:23:17.988Z,10.10
2023-03-30T19:25:45.741Z,13.27
2023-03-30T19:28:14.586Z,11.33
2023-03-30T19:30:41.830Z,11.87
2023-03-30T19:33:11.947Z,15.20
2023-03-30T19:35:42.757Z,10.23
2023-03-30T19:38:10.077Z,9.97
2023-03-30T19:40:38.222Z,13.23
2023-03-30T19:43:05.478Z,14.30
2023-03-30T19:45:32.670Z,6.57
2023-03-30T19:47:59.905Z,9.47
2023-03-30T19:50:28.743Z,8.30
2023-03-30T19:52:57.416Z,10.30
2023-03-30T19:55:24.591Z,10.70
2023-03-30T19:57:51.765Z,11.13
2023-03-30T20:00:19.921Z,11.43
2023-03-30T20:02:49.248Z,11.40
2023-03-30T20:05:17.151Z,10.93
2023-03-30T20:07:44.973Z,11.87
2023-03-30T20:10:13.426Z,12.67
2023-03-30T20:12:40.561Z,10.63
2023-03-30T20:15:08.934Z,13.33
2023-03-30T20:17:36.684Z,8.63
2023-03-30T20:20:06.833Z,18.57
2023-03-30T20:22:35.138Z,9.13
2023-03-30T20:25:02.665Z,10.10
2023-03-30T20:27:29.834Z,12.30
2023-03-30T20:29:57.016Z,10.67
2023-03-30T20:32:24.127Z,9.07
2023-03-30T20:34:51.227Z,10.37
2023-03-30T20:37:18.599Z,10.03
2023-03-30T20:39:45.697Z,11.03
2023-03-30T20:42:12.814Z,11.00
2023-03-30T20:44:40.634Z,10.00
2023-03-30T20:47:08.885Z,9.77
2023-03-30T20:49:38.029Z,8.37
2023-03-30T20:52:05.689Z,6.63
2023-03-30T20:54:32.861Z,8.03
2023-03-30T20:57:00.022Z,11.27
2023-03-30T20:59:27.239Z,10.00
2023-03-30T21:01:56.253Z,13.40
2023-03-30T21:04:23.543Z,8.73
2023-03-30T21:06:50.682Z,7.63
2023-03-30T21:09:18.544Z,7.93
2023-03-30T21:11:45.829Z,12.00
2023-03-30T21:14:13.977Z,9.60
2023-03-30T21:16:44.619Z,8.97
2023-03-30T21:19:12.272Z,12.17
2023-03-30T21:21:39.570Z,8.10
2023-03-30T21:24:08.719Z,11.93
2023-03-30T21:26:36.910Z,9.77
2023-03-30T21:29:04.997Z,8.33
2023-03-30T21:31:32.382Z,8.33
2023-03-30T21:34:00.944Z,9.03
2023-03-30T21:36:28.158Z,8.07
2023-03-30T21:38:57.620Z,10.20
2023-03-30T21:41:26.209Z,8.77
2023-03-30T21:43:53.487Z,12.10
2023-03-30T21:46:21.453Z,8.97
2023-03-30T21:48:51.270Z,12.07
2023-03-30T21:51:25.663Z,14.07
2023-03-30T21:53:53.340Z,7.53
2023-03-30T21:56:22.301Z,11.27
2023-03-30T21:58:49.689Z,9.03
2023-03-30T22:01:20.932Z,7.77
2023-03-30T22:03:48.345Z,8.00
2023-03-30T22:06:16.389Z,10.00
2023-03-30T22:08:45.508Z,11.50
2023-03-30T22:11:18.128Z,6.33
2023-03-30T22:13:48.161Z,12.33
2023-03-30T22:16:22.302Z,10.83
2023-03-30T22:18:49.822Z,12.03
2023-03-30T22:21:18.270Z,10.60
2023-03-30T22:23:45.804Z,11.00
2023-03-30T22:26:13.312Z,12.30
2023-03-30T22:28:40.471Z,12.20
2023-03-30T22:31:11.571Z,13.40
2023-03-30T22:33:38.797Z,11.03
2023-03-30T22:36:07.351Z,13.10
2023-03-30T22:38:34.777Z,9.40
2023-03-30T22:41:06.460Z,14.73
2023-03-30T22:43:34.589Z,11.30
2023-03-30T22:46:01.964Z,11.43
2023-03-30T22:48:29.132Z,12.20
2023-03-30T22:50:58.160Z,10.67
2023-03-30T22:53:25.329Z,8.80
2023-03-30T22:55:52.477Z,6.83
2023-03-30T22:58:19.564Z,9.20
2023-03-30T23:00:46.740Z,8.77
2023-03-30T23:03:13.968Z,10.40
2023-03-30T23:05:41.250Z,11.03
2023-03-30T23:08:10.498Z,9.33
2023-03-30T23:10:37.759Z,10.07
2023-03-30T23:13:05.106Z,12.20
2023-03-30T23:15:32.301Z,11.90
2023-03-30T23:17:59.712Z,9.63
2023-03-30T23:20:26.893Z,9.37
2023-03-30T23:22:54.004Z,9.33
2023-03-30T23:25:22.156Z,9.63
2023-03-30T23:27:49.357Z,7.17
2023-03-30T23:30:16.573Z,7.90
2023-03-30T23:32:43.752Z,6.00
2023-03-30T23:35:11.030Z,8.07
2023-03-30T23:37:38.174Z,8.67
2023-03-30T23:40:07.730Z,10.57
2023-03-30T23:42:34.923Z,10.83
2023-03-30T23:45:02.053Z,12.40
2023-03-30T23:47:29.561Z,10.53
2023-03-30T23:49:56.701Z,10.90
2023-03-30T23:52:23.812Z,9.13
2023-03-30T23:54:52.404Z,7.60
2023-03-30T23:57:19.973Z,10.07
2023-03-30T23:59:47.143Z,7.60
